Time;durP1;ratioP1;P1;durP2;ratioP2;P2;SDS_P1;SDS_P2;PMS_P1;PMS_P2;Temp;Humidity;BMP_temperature;BMP_pressure;BME280_temperature;BME280_humidity;BME280_pressure;Samples;Min_cycle;Max_cycle;Signal;HPM_P1;HPM_P2
2022/11/23 00:01:41;;;;;;;32.08;3.55;;;11.20;75.20;;;;;;7396528;19;20438;-83
2022/11/23 00:04:13;;;;;;;23.95;4.38;;;11.10;75.50;;;;;;7377205;19;20014;-83
2022/11/23 00:06:42;;;;;;;25.77;3.33;;;11.10;75.50;;;;;;7376207;19;20497;-83
2022/11/23 00:09:13;;;;;;;24.83;4.25;;;11.10;75.50;;;;;;7376992;19;20043;-83
2022/11/23 00:11:44;;;;;;;27.00;4.32;;;11.20;75.40;;;;;;7377091;19;20085;-84
2022/11/23 00:14:12;;;;;;;;;;;11.20;75.20;;;;;;7379632;19;20097;-83
2022/11/23 00:16:41;;;;;;;26.33;3.17;;;11.30;75.20;;;;;;7396773;19;20602;-84
2022/11/23 00:19:11;;;;;;;20.42;3.60;;;11.20;75.00;;;;;;7379064;19;20017;-84
2022/11/23 00:21:40;;;;;;;26.90;3.78;;;11.20;75.10;;;;;;7378474;19;20021;-84
2022/11/23 00:24:09;;;;;;;28.83;4.30;;;11.20;75.20;;;;;;7385250;19;20022;-83
2022/11/23 00:26:37;;;;;;;24.15;4.28;;;11.20;75.30;;;;;;7386069;19;20022;-83
2022/11/23 00:29:09;;;;;;;25.92;3.42;;;11.20;75.20;;;;;;7384954;19;20022;-83
2022/11/23 00:31:37;;;;;;;;;;;11.30;75.30;;;;;;7409739;19;20439;-83
2022/11/23 00:34:06;;;;;;;23.60;3.85;;;11.40;75.20;;;;;;7386656;19;19911;-83
2022/11/23 00:36:34;;;;;;;24.17;3.85;;;11.30;74.90;;;;;;7383275;19;20022;-83
2022/11/23 00:39:03;;;;;;;25.23;3.63;;;11.30;74.90;;;;;;7379624;19;20011;-83
2022/11/23 00:41:32;;;;;;;29.60;4.07;;;11.30;74.90;;;;;;7381762;19;20026;-83
2022/11/23 00:44:01;;;;;;;24.48;3.67;;;11.30;74.90;;;;;;7379499;19;20035;-84
2022/11/23 00:46:32;;;;;;;32.95;4.00;;;11.30;75.00;;;;;;7406486;19;20022;-84
2022/11/23 00:49:01;;;;;;;20.83;3.30;;;11.30;75.00;;;;;;7384618;19;20370;-83
2022/11/23 00:51:31;;;;;;;23.40;3.42;;;11.30;75.20;;;;;;7378924;19;20825;-84
2022/11/23 00:54:01;;;;;;;18.30;3.88;;;11.30;75.20;;;;;;7376383;19;20034;-83
2022/11/23 00:56:31;;;;;;;17.17;4.15;;;11.30;75.20;;;;;;7375932;19;20014;-83
2022/11/23 00:59:01;;;;;;;23.05;3.58;;;11.20;75.40;;;;;;7375602;19;20085;-83
2022/11/23 01:01:35;;;;;;;19.05;3.38;;;11.10;75.80;;;;;;7396884;19;20024;-83
2022/11/23 01:04:07;;;;;;;19.90;3.85;;;11.20;75.90;;;;;;7373946;19;20015;-83
2022/11/23 01:06:38;;;;;;;23.88;3.97;;;11.20;75.80;;;;;;7373380;19;20125;-83
2022/11/23 01:09:09;;;;;;;13.57;3.95;;;11.20;76.50;;;;;;7372029;19;20028;-82
2022/11/23 01:11:38;;;;;;;17.48;3.47;;;11.30;75.70;;;;;;7373559;19;20014;-84
2022/11/23 01:14:07;;;;;;;18.23;3.30;;;11.30;75.50;;;;;;7374671;19;20078;-83
2022/11/23 01:16:40;;;;;;;33.50;4.57;;;11.30;75.50;;;;;;7398142;19;20121;-83
2022/11/23 01:19:11;;;;;;;23.92;4.00;;;11.20;75.60;;;;;;7374794;19;20024;-84
2022/11/23 01:21:40;;;;;;;;;;;11.20;75.80;;;;;;7377339;19;20177;-83
2022/11/23 01:24:11;;;;;;;21.30;4.38;;;11.20;76.00;;;;;;7382580;19;19917;-82
2022/11/23 01:26:41;;;;;;;15.43;3.67;;;11.20;76.00;;;;;;7383063;19;20031;-84
2022/11/23 01:29:10;;;;;;;23.50;3.97;;;11.20;76.20;;;;;;7381384;19;20034;-83
2022/11/23 01:31:42;;;;;;;21.67;4.88;;;11.10;76.10;;;;;;7404420;19;20031;-83
2022/11/23 01:34:14;;;;;;;24.50;4.00;;;11.10;76.30;;;;;;7382352;19;20317;-83
2022/11/23 01:36:43;;;;;;;22.63;4.35;;;11.10;76.30;;;;;;7382083;19;20011;-83
2022/11/23 01:39:13;;;;;;;20.27;3.75;;;11.10;76.30;;;;;;7382834;19;20066;-83
2022/11/23 01:41:43;;;;;;;17.55;3.83;;;11.10;76.30;;;;;;7381477;19;20022;-83
2022/11/23 01:44:30;;;;;;;24.38;4.30;;;11.20;76.30;;;;;;7378907;19;20010;-83
2022/11/23 01:47:03;;;;;;;14.32;3.65;;;11.10;76.30;;;;;;7380639;19;20011;-82
2022/11/23 01:49:35;;;;;;;17.35;3.67;;;11.10;76.40;;;;;;7403790;19;20031;-83
2022/11/23 01:52:08;;;;;;;23.80;4.13;;;11.10;76.50;;;;;;7380398;19;20048;-83
2022/11/23 01:54:41;;;;;;;19.80;4.28;;;11.10;76.60;;;;;;7379131;19;20014;-82
2022/11/23 01:57:14;;;;;;;26.90;4.38;;;11.10;76.70;;;;;;7379345;19;20094;-82
2022/11/23 01:59:42;;;;;;;21.80;4.13;;;11.10;76.70;;;;;;7380429;19;20007;-82
2022/11/23 02:02:16;;;;;;;34.38;4.45;;;11.10;76.60;;;;;;7378331;19;20066;-82
2022/11/23 02:04:48;;;;;;;26.30;4.40;;;11.00;76.50;;;;;;7382119;19;20022;-82
2022/11/23 02:07:18;;;;;;;26.08;3.85;;;11.10;76.60;;;;;;7403540;19;20025;-82
2022/11/23 02:09:48;;;;;;;17.93;3.63;;;11.10;76.60;;;;;;7385529;19;20035;-82
2022/11/23 02:12:17;;;;;;;28.85;4.65;;;11.10;76.80;;;;;;7381568;19;20074;-83
2022/11/23 02:14:47;;;;;;;22.85;4.13;;;11.10;76.80;;;;;;7382788;19;20011;-83
2022/11/23 02:17:18;;;;;;;19.05;3.97;;;11.10;76.90;;;;;;7382392;19;20793;-83
2022/11/23 02:19:59;;;;;;;20.15;4.13;;;11.20;76.80;;;;;;7380302;19;20764;-81
2022/11/23 02:22:35;;;;;;;24.23;5.15;;;11.20;76.80;;;;;;7399063;19;20048;-82
2022/11/23 02:25:08;;;;;;;16.63;3.95;;;11.20;76.80;;;;;;7381385;19;20090;-83
2022/11/23 02:27:40;;;;;;;18.85;4.00;;;11.20;76.80;;;;;;7380290;19;20031;-83
2022/11/23 02:30:11;;;;;;;19.40;4.15;;;11.20;77.80;;;;;;7379301;19;20018;-83
2022/11/23 02:32:40;;;;;;;30.60;4.17;;;11.20;77.20;;;;;;7379635;19;20106;-82
2022/11/23 02:35:11;;;;;;;18.85;4.50;;;11.10;77.30;;;;;;7380060;19;20038;-83
2022/11/23 02:37:40;;;;;;;20.03;3.83;;;11.10;77.70;;;;;;7403081;19;20026;-82
2022/11/23 02:40:18;;;;;;;24.77;4.57;;;11.20;77.70;;;;;;7379352;19;20746;-82
2022/11/23 02:42:51;;;;;;;22.13;4.28;;;11.20;77.70;;;;;;7378494;19;20043;-82
2022/11/23 02:45:29;;;;;;;16.35;3.70;;;11.20;77.60;;;;;;7381709;19;20014;-83
2022/11/23 02:47:57;;;;;;;24.33;4.05;;;11.20;77.60;;;;;;7380487;19;20025;-82
2022/11/23 02:50:27;;;;;;;33.63;4.07;;;11.20;77.60;;;;;;7380833;19;20014;-82
2022/11/23 02:52:55;;;;;;;16.90;3.83;;;11.30;77.70;;;;;;7378651;19;20027;-82
2022/11/23 02:55:24;;;;;;;21.17;3.78;;;11.30;77.50;;;;;;7401375;19;20022;-83
2022/11/23 02:57:55;;;;;;;17.13;3.85;;;11.30;77.50;;;;;;7379128;19;20106;-83
2022/11/23 03:00:24;;;;;;;16.80;3.97;;;11.20;77.70;;;;;;7381678;19;20019;-83
2022/11/23 03:02:53;;;;;;;27.20;4.25;;;11.30;77.80;;;;;;7379640;19;20170;-83
2022/11/23 03:05:22;;;;;;;20.38;4.07;;;11.30;77.70;;;;;;7381665;19;20078;-83
2022/11/23 03:07:50;;;;;;;30.42;4.78;;;11.40;77.80;;;;;;7379646;19;20066;-83
2022/11/23 03:10:20;;;;;;;22.45;4.43;;;11.30;77.80;;;;;;7410618;19;20011;-83
2022/11/23 03:12:49;;;;;;;25.52;4.68;;;11.30;78.10;;;;;;7387594;19;20128;-83
2022/11/23 03:15:21;;;;;;;16.00;4.22;;;11.30;78.10;;;;;;7387156;19;20079;-83
2022/11/23 03:17:49;;;;;;;;;;;11.30;78.10;;;;;;7386627;19;20584;-83
2022/11/23 03:20:18;;;;;;;21.25;3.75;;;11.40;78.20;;;;;;7385870;19;19927;-83
2022/11/23 03:22:47;;;;;;;15.60;4.18;;;11.40;77.90;;;;;;7382143;19;20095;-83
2022/11/23 03:25:16;;;;;;;24.90;4.95;;;11.50;78.00;;;;;;7398540;19;20018;-83
2022/11/23 03:27:44;;;;;;;37.42;4.55;;;11.50;78.00;;;;;;7378162;19;20113;-83
2022/11/23 03:30:13;;;;;;;29.75;4.88;;;11.50;78.00;;;;;;7376705;19;20031;-83
2022/11/23 03:32:45;;;;;;;22.83;4.40;;;11.60;77.90;;;;;;7376149;19;20530;-83
2022/11/23 03:35:14;;;;;;;24.60;4.75;;;11.60;77.90;;;;;;7375375;19;20031;-83
2022/11/23 03:37:44;;;;;;;18.45;4.13;;;11.60;77.80;;;;;;7398356;19;20074;-82
2022/11/23 03:40:13;;;;;;;18.80;4.03;;;11.70;77.70;;;;;;7398356;19;20018;-83
2022/11/23 03:42:42;;;;;;;25.55;4.75;;;11.70;77.70;;;;;;7378992;19;20802;-83
2022/11/23 03:45:11;;;;;;;21.92;5.05;;;11.70;77.70;;;;;;7374581;19;20341;-83
2022/11/23 03:47:40;;;;;;;29.67;5.60;;;11.70;77.70;;;;;;7377712;19;20336;-83
2022/11/23 03:50:12;;;;;;;19.67;4.53;;;11.70;77.70;;;;;;7375517;19;20081;-83
2022/11/23 03:52:41;;;;;;;18.58;4.40;;;11.70;77.80;;;;;;7399175;19;20042;-83
2022/11/23 03:55:10;;;;;;;22.67;4.40;;;11.70;77.70;;;;;;7376213;19;20022;-83
2022/11/23 03:57:39;;;;;;;27.75;4.40;;;11.70;77.70;;;;;;7375711;19;20354;-83
2022/11/23 04:00:10;;;;;;;19.80;4.57;;;11.80;77.60;;;;;;7376074;19;20160;-82
2022/11/23 04:02:38;;;;;;;26.08;6.13;;;11.80;77.70;;;;;;7374889;19;20011;-82
2022/11/23 04:05:11;;;;;;;29.80;5.35;;;11.80;77.60;;;;;;7376685;19;20015;-82
2022/11/23 04:07:40;;;;;;;28.42;5.47;;;11.80;77.50;;;;;;7398059;19;20015;-83
2022/11/23 04:10:10;;;;;;;16.02;4.88;;;11.80;77.40;;;;;;7376478;19;20087;-84
2022/11/23 04:12:39;;;;;;;35.00;5.97;;;11.70;77.50;;;;;;7374790;19;20040;-83
2022/11/23 04:15:09;;;;;;;38.60;5.88;;;11.80;77.60;;;;;;7377226;19;20086;-82
2022/11/23 04:17:37;;;;;;;21.17;5.15;;;11.80;77.80;;;;;;7377741;19;20038;-82
2022/11/23 04:20:08;;;;;;;31.25;5.75;;;11.70;77.80;;;;;;7378700;19;20007;-83
2022/11/23 04:22:40;;;;;;;29.75;6.03;;;11.80;77.80;;;;;;7401613;19;20018;-83
2022/11/23 04:25:09;;;;;;;;;;;11.70;77.70;;;;;;7380106;19;20745;-83
2022/11/23 04:27:38;;;;;;;29.25;6.35;;;11.80;77.90;;;;;;7382490;19;19934;-83
2022/11/23 04:30:08;;;;;;;26.23;5.97;;;11.70;77.80;;;;;;7378448;19;20029;-82
2022/11/23 04:32:36;;;;;;;27.05;6.55;;;11.70;77.90;;;;;;7376964;19;20018;-83
2022/11/23 04:35:06;;;;;;;30.85;7.18;;;11.70;78.10;;;;;;7376424;19;20090;-82
2022/11/23 04:37:34;;;;;;;19.35;5.60;;;11.80;78.10;;;;;;7398388;19;20018;-82
2022/11/23 04:40:07;;;;;;;20.90;6.03;;;11.80;78.30;;;;;;7376747;19;20027;-84
2022/11/23 04:42:36;;;;;;;29.88;7.18;;;11.80;78.30;;;;;;7375139;19;20023;-83
2022/11/23 04:45:05;;;;;;;24.67;5.95;;;11.70;78.30;;;;;;7375847;19;20099;-83
2022/11/23 04:47:34;;;;;;;31.67;7.05;;;11.70;78.50;;;;;;7374612;19;20052;-83
2022/11/23 04:50:02;;;;;;;34.75;7.32;;;11.70;78.60;;;;;;7375971;19;20018;-83
2022/11/23 04:52:31;;;;;;;23.40;7.13;;;11.60;78.70;;;;;;7394344;19;20458;-82
2022/11/23 04:55:00;;;;;;;27.58;7.78;;;11.60;78.80;;;;;;7373519;19;20031;-83
2022/11/23 04:57:31;;;;;;;19.35;6.75;;;11.50;78.90;;;;;;7376719;19;20766;-83
2022/11/23 05:00:00;;;;;;;;;;;11.50;79.10;;;;;;7377256;19;20086;-83
2022/11/23 05:02:28;;;;;;;24.50;6.22;;;11.60;79.10;;;;;;7376697;19;19914;-83
2022/11/23 05:04:57;;;;;;;25.92;6.93;;;11.60;78.70;;;;;;7376704;19;20023;-82
2022/11/23 05:07:26;;;;;;;23.67;7.28;;;11.60;78.80;;;;;;7400317;19;20031;-82
2022/11/23 05:09:54;;;;;;;23.33;7.50;;;11.60;78.80;;;;;;7377875;19;20062;-83
2022/11/23 05:12:23;;;;;;;20.13;7.78;;;11.60;79.00;;;;;;7374348;19;20026;-82
2022/11/23 05:14:55;;;;;;;21.42;7.72;;;11.50;79.00;;;;;;7377061;19;20031;-82
2022/11/23 05:17:23;;;;;;;22.73;7.40;;;11.50;79.20;;;;;;7374916;19;20078;-83
2022/11/23 05:19:52;;;;;;;21.88;7.97;;;11.50;79.30;;;;;;7378302;19;20019;-82
2022/11/23 05:22:21;;;;;;;21.25;7.45;;;11.50;79.30;;;;;;7396839;19;20106;-83
2022/11/23 05:24:49;;;;;;;27.90;7.05;;;11.50;79.40;;;;;;7377919;19;20054;-84
2022/11/23 05:27:18;;;;;;;23.73;6.47;;;11.50;79.70;;;;;;7380312;19;20015;-83
2022/11/23 05:29:47;;;;;;;33.42;7.93;;;11.40;79.70;;;;;;7382215;19;20027;-83
2022/11/23 05:32:19;;;;;;;18.95;6.50;;;11.50;79.90;;;;;;7385102;19;20014;-83
2022/11/23 05:34:47;;;;;;;18.23;6.60;;;11.50;79.80;;;;;;7382881;19;20086;-81
2022/11/23 05:37:16;;;;;;;25.17;7.43;;;11.60;79.80;;;;;;7396918;19;20466;-82
2022/11/23 05:39:45;;;;;;;23.65;7.35;;;11.60;79.70;;;;;;7377557;19;20095;-82
2022/11/23 05:42:13;;;;;;;28.58;7.00;;;11.60;79.70;;;;;;7378239;19;20023;-82
2022/11/23 05:44:42;;;;;;;21.63;6.63;;;11.60;80.60;;;;;;7375599;19;20094;-81
2022/11/23 05:47:11;;;;;;;23.05;7.38;;;11.60;79.80;;;;;;7377660;19;20021;-82
2022/11/23 05:49:42;;;;;;;17.17;6.75;;;11.60;79.80;;;;;;7395919;19;20455;-83
2022/11/23 05:52:11;;;;;;;;;;;11.60;79.90;;;;;;7375261;19;20040;-83
2022/11/23 05:54:40;;;;;;;23.70;5.78;;;11.70;80.00;;;;;;7375011;19;20231;-83
2022/11/23 05:57:09;;;;;;;18.65;6.70;;;11.70;79.70;;;;;;7374559;19;20011;-83
2022/11/23 05:59:38;;;;;;;21.83;6.03;;;11.70;79.90;;;;;;7375299;19;20014;-82
2022/11/23 06:02:06;;;;;;;17.45;6.22;;;11.70;79.90;;;;;;7372840;19;20031;-82
2022/11/23 06:04:35;;;;;;;1345.80;46.42;;;11.80;80.00;;;;;;7393695;19;20014;-83
2022/11/23 06:07:07;;;;;;;27.08;6.22;;;11.80;80.30;;;;;;7375259;19;20109;-82
2022/11/23 06:09:35;;;;;;;;;;;11.80;80.30;;;;;;7380533;19;20031;-82
2022/11/23 06:12:05;;;;;;;20.65;8.13;;;11.80;80.50;;;;;;7380588;19;19940;-83
2022/11/23 06:14:34;;;;;;;21.73;5.93;;;11.70;80.10;;;;;;7378527;19;20021;-82
2022/11/23 06:17:02;;;;;;;49.65;6.28;;;11.80;80.30;;;;;;7381886;19;20026;-82
2022/11/23 06:19:31;;;;;;;14.20;4.85;;;11.80;80.30;;;;;;7400433;19;20046;-83
2022/11/23 06:22:00;;;;;;;16.67;4.55;;;11.90;80.30;;;;;;7382114;19;20028;-84
2022/11/23 06:24:32;;;;;;;15.88;4.07;;;11.90;80.10;;;;;;7379542;19;20011;-84
2022/11/23 06:27:01;;;;;;;17.27;4.78;;;11.90;80.10;;;;;;7381345;19;20078;-83
2022/11/23 06:29:30;;;;;;;21.13;4.55;;;11.90;80.00;;;;;;7382691;19;20023;-83
2022/11/23 06:31:58;;;;;;;16.33;4.72;;;11.90;80.00;;;;;;7381277;19;20018;-81
2022/11/23 06:34:27;;;;;;;19.00;4.95;;;11.90;79.90;;;;;;7401837;19;20438;-80
2022/11/23 06:36:56;;;;;;;16.42;4.50;;;11.90;79.80;;;;;;7380803;19;20018;-80
2022/11/23 06:39:25;;;;;;;17.50;4.95;;;12.00;79.80;;;;;;7380277;19;20372;-79
2022/11/23 06:41:58;;;;;;;21.60;4.88;;;12.00;79.80;;;;;;7380797;19;20014;-79
2022/11/23 06:44:27;;;;;;;12.00;4.05;;;12.00;79.70;;;;;;7379016;19;20010;-82
2022/11/23 06:46:55;;;;;;;24.85;5.43;;;12.00;79.60;;;;;;7374475;19;20015;-79
2022/11/23 06:49:25;;;;;;;20.65;4.88;;;12.00;79.50;;;;;;7394402;19;20035;-80
2022/11/23 06:51:54;;;;;;;18.67;5.05;;;12.00;79.30;;;;;;7377552;19;20315;-80
2022/11/23 06:54:22;;;;;;;15.85;4.55;;;12.00;79.20;;;;;;7375417;19;20018;-81
2022/11/23 06:56:51;;;;;;;19.60;5.32;;;12.00;79.20;;;;;;7376633;19;20740;-81
2022/11/23 06:59:22;;;;;;;18.45;4.63;;;12.00;80.00;;;;;;7377513;19;20081;-81
2022/11/23 07:01:51;;;;;;;19.45;4.63;;;11.90;78.90;;;;;;7378629;19;20018;-80
2022/11/23 07:04:20;;;;;;;22.70;5.25;;;12.00;79.00;;;;;;7395060;19;20018;-80
2022/11/23 07:06:49;;;;;;;20.98;4.32;;;12.00;78.90;;;;;;7381018;19;20351;-81
2022/11/23 07:09:17;;;;;;;17.70;4.55;;;12.00;78.90;;;;;;7381290;19;20446;-81
2022/11/23 07:11:46;;;;;;;23.63;4.97;;;11.90;78.80;;;;;;7380507;19;20021;-80
2022/11/23 07:14:15;;;;;;;26.88;5.10;;;11.90;78.90;;;;;;7378188;19;20024;-80
2022/11/23 07:16:46;;;;;;;15.68;4.53;;;11.90;78.80;;;;;;7389910;19;20011;-79
2022/11/23 07:19:15;;;;;;;15.68;4.28;;;11.90;78.80;;;;;;7399982;19;20011;-81
2022/11/23 07:21:44;;;;;;;16.38;4.60;;;11.90;78.80;;;;;;7376717;19;20667;-81
2022/11/23 07:24:12;;;;;;;14.05;4.47;;;11.90;78.70;;;;;;7376339;19;20035;-82
2022/11/23 07:26:41;;;;;;;11.18;3.97;;;12.00;78.80;;;;;;7378197;19;20082;-82
2022/11/23 07:29:10;;;;;;;14.90;4.40;;;12.00;78.60;;;;;;7377580;19;20070;-81
2022/11/23 07:31:39;;;;;;;12.00;4.53;;;11.90;78.50;;;;;;7398123;19;20107;-81
2022/11/23 07:34:11;;;;;;;16.45;4.60;;;12.00;79.40;;;;;;7378479;19;20503;-80
2022/11/23 07:36:40;;;;;;;18.92;4.97;;;11.90;78.50;;;;;;7375198;19;20017;-81
2022/11/23 07:39:09;;;;;;;12.70;4.50;;;11.90;78.50;;;;;;7375673;19;20022;-82
2022/11/23 07:41:37;;;;;;;9.10;4.00;;;12.00;78.50;;;;;;7376974;19;20026;-80
2022/11/23 07:44:07;;;;;;;15.80;4.95;;;12.00;78.60;;;;;;7374759;19;20106;-80
2022/11/23 07:46:36;;;;;;;19.65;5.35;;;12.00;78.60;;;;;;7400219;19;20022;-81
2022/11/23 07:49:04;;;;;;;16.05;4.60;;;12.00;79.30;;;;;;7378885;19;20007;-80
2022/11/23 07:51:36;;;;;;;14.32;4.65;;;11.90;78.60;;;;;;7380663;19;20019;-81
2022/11/23 07:54:05;;;;;;;11.80;4.30;;;11.90;78.60;;;;;;7385655;19;20011;-80
2022/11/23 07:56:33;;;;;;;12.63;3.95;;;11.90;78.60;;;;;;7387146;19;20019;-81
2022/11/23 07:59:02;;;;;;;15.82;4.90;;;11.90;78.90;;;;;;7391143;19;20023;-80
2022/11/23 08:01:31;;;;;;;14.93;4.30;;;11.90;79.10;;;;;;7412533;19;20028;-81
2022/11/23 08:04:00;;;;;;;12.70;4.93;;;11.90;79.10;;;;;;7392502;19;20098;-81
2022/11/23 08:06:28;;;;;;;18.05;4.70;;;11.90;79.10;;;;;;7400381;19;20022;-80
2022/11/23 08:09:00;;;;;;;16.27;4.45;;;11.90;79.30;;;;;;7401869;19;20010;-81
2022/11/23 08:11:28;;;;;;;14.00;4.53;;;11.90;79.40;;;;;;7393123;19;20013;-81
2022/11/23 08:13:57;;;;;;;16.65;5.10;;;11.90;79.40;;;;;;7385824;19;20438;-79
2022/11/23 08:16:26;;;;;;;16.25;5.05;;;11.90;79.50;;;;;;7407283;19;20035;-80
2022/11/23 08:18:54;;;;;;;13.88;4.55;;;11.90;79.90;;;;;;7384677;19;20097;-80
2022/11/23 08:21:23;;;;;;;15.43;4.65;;;11.90;79.50;;;;;;7383740;19;20101;-80
2022/11/23 08:23:52;;;;;;;15.30;4.60;;;12.00;79.70;;;;;;7379206;19;20449;-80
2022/11/23 08:26:23;;;;;;;16.95;4.53;;;12.00;79.60;;;;;;7378451;19;20018;-81
2022/11/23 08:28:52;;;;;;;14.20;4.45;;;12.00;79.50;;;;;;7379606;19;20026;-80
2022/11/23 08:31:21;;;;;;;13.85;4.43;;;12.00;79.70;;;;;;7398872;19;20018;-81
2022/11/23 08:33:49;;;;;;;15.48;4.72;;;12.10;79.70;;;;;;7376366;19;20093;-80
2022/11/23 08:36:19;;;;;;;15.90;4.45;;;12.00;79.40;;;;;;7376231;19;20315;-80
2022/11/23 08:38:50;;;;;;;11.68;4.05;;;12.10;79.50;;;;;;7377008;19;20347;-80
2022/11/23 08:41:19;;;;;;;9.35;4.00;;;12.10;79.70;;;;;;7375626;19;20014;-81
2022/11/23 08:43:51;;;;;;;15.02;4.15;;;12.10;79.50;;;;;;7375720;19;20031;-80
2022/11/23 08:46:20;;;;;;;16.13;4.35;;;12.10;79.40;;;;;;7396588;19;20659;-81
2022/11/23 08:48:49;;;;;;;16.45;3.90;;;12.20;79.20;;;;;;7376369;19;20010;-81
2022/11/23 08:51:21;;;;;;;11.15;4.18;;;12.20;79.10;;;;;;7375412;19;20017;-81
2022/11/23 08:53:50;;;;;;;14.30;4.55;;;12.10;79.10;;;;;;7376759;19;20022;-81
2022/11/23 08:56:19;;;;;;;12.63;3.65;;;12.20;79.10;;;;;;7376075;19;20010;-81
2022/11/23 08:58:51;;;;;;;13.60;4.47;;;12.20;79.80;;;;;;7374505;19;20019;-79
2022/11/23 09:01:20;;;;;;;11.07;4.18;;;12.20;79.00;;;;;;7396805;19;20082;-81
2022/11/23 09:03:49;;;;;;;12.52;3.50;;;12.10;78.80;;;;;;7374052;19;20014;-81
2022/11/23 09:06:17;;;;;;;10.10;3.20;;;12.10;78.80;;;;;;7375491;19;20381;-80
2022/11/23 09:08:46;;;;;;;15.95;4.03;;;12.10;78.90;;;;;;7375561;19;20097;-80
2022/11/23 09:11:19;;;;;;;8.50;3.40;;;12.10;79.00;;;;;;7375842;19;20021;-80
2022/11/23 09:13:50;;;;;;;14.27;3.97;;;12.10;79.00;;;;;;7376634;19;20014;-80
2022/11/23 09:16:19;;;;;;;10.45;3.97;;;12.10;79.20;;;;;;7395969;19;20021;-81
2022/11/23 09:18:48;;;;;;;11.43;3.63;;;12.10;79.30;;;;;;7374252;19;20006;-81
2022/11/23 09:21:17;;;;;;;8.63;3.38;;;12.10;79.40;;;;;;7374020;19;20131;-81
2022/11/23 09:23:46;;;;;;;8.75;4.22;;;12.20;79.50;;;;;;7375635;19;20018;-81
2022/11/23 09:26:15;;;;;;;9.93;3.50;;;12.10;79.50;;;;;;7373722;19;20639;-81
2022/11/23 09:28:44;;;;;;;11.02;4.03;;;12.10;79.50;;;;;;7388894;19;20943;-80
2022/11/23 09:31:15;;;;;;;15.05;5.50;;;12.10;79.70;;;;;;7396657;19;20122;-81
2022/11/23 09:33:44;;;;;;;16.30;5.65;;;12.10;79.80;;;;;;7372491;19;20032;-81
2022/11/23 09:36:12;;;;;;;12.93;5.30;;;12.10;79.90;;;;;;7372887;19;20062;-81
2022/11/23 09:38:41;;;;;;;14.57;5.38;;;12.10;80.10;;;;;;7371548;19;20106;-82
2022/11/23 09:41:28;;;;;;;8.32;4.20;;;12.20;80.30;;;;;;7371766;19;20010;-81
2022/11/23 09:44:06;;;;;;;9.10;4.50;;;12.10;80.40;;;;;;7378274;19;20517;-81
2022/11/23 09:46:43;;;;;;;13.70;4.45;;;12.20;80.50;;;;;;7400130;19;20023;-81
2022/11/23 09:49:17;;;;;;;8.30;4.20;;;12.20;80.50;;;;;;7377748;19;20010;-81
2022/11/23 09:51:47;;;;;;;9.77;3.80;;;12.20;80.50;;;;;;7379660;19;20760;-82
2022/11/23 09:54:29;;;;;;;11.35;3.97;;;12.20;80.70;;;;;;7380372;19;20014;-81
2022/11/23 09:56:59;;;;;;;10.00;3.28;;;12.10;80.80;;;;;;7380340;19;20089;-81
2022/11/23 09:59:38;;;;;;;8.63;3.95;;;12.10;80.90;;;;;;7379317;19;20078;-81
2022/11/23 10:02:21;;;;;;;6.85;3.30;;;12.00;81.10;;;;;;7380855;19;20101;-81
2022/11/23 10:04:50;;;;;;;8.95;3.13;;;12.00;81.60;;;;;;7377024;19;20086;-80
2022/11/23 10:07:36;;;;;;;7.90;3.15;;;12.00;81.70;;;;;;7402185;19;20032;-81
2022/11/23 10:10:17;;;;;;;9.60;3.55;;;12.00;82.00;;;;;;7383430;19;20090;-81
2022/11/23 10:12:55;;;;;;;6.32;3.13;;;12.00;82.00;;;;;;7382483;19;20018;-81
2022/11/23 10:15:29;;;;;;;8.40;3.30;;;11.90;82.50;;;;;;7384948;19;20014;-81
2022/11/23 10:18:10;;;;;;;5.03;2.60;;;11.80;82.70;;;;;;7390628;19;20022;-81
2022/11/23 10:20:54;;;;;;;12.77;3.30;;;11.90;82.90;;;;;;7392768;19;20079;-81
2022/11/23 10:23:37;;;;;;;10.65;3.10;;;11.90;82.90;;;;;;7387201;19;20018;-81
2022/11/23 10:26:05;;;;;;;7.55;2.70;;;11.90;82.90;;;;;;7381756;19;20035;-81
2022/11/23 10:28:34;;;;;;;9.98;3.10;;;11.90;83.00;;;;;;7403116;19;20041;-82
2022/11/23 10:31:13;;;;;;;9.70;3.58;;;11.90;83.00;;;;;;7381544;19;20081;-82
2022/11/23 10:33:54;;;;;;;4.10;2.55;;;12.00;83.10;;;;;;7384713;19;20376;-81
2022/11/23 10:36:23;;;;;;;8.43;3.15;;;11.90;83.20;;;;;;7380831;19;20031;-82
2022/11/23 10:38:55;;;;;;;4.70;2.60;;;12.00;83.20;;;;;;7380089;19;20027;-80
2022/11/23 10:41:24;;;;;;;5.03;2.55;;;12.00;83.10;;;;;;7381564;19;20017;-81
2022/11/23 10:43:57;;;;;;;6.47;2.15;;;12.10;83.20;;;;;;7378784;19;20101;-81
2022/11/23 10:46:32;;;;;;;6.53;2.40;;;12.10;82.90;;;;;;7401931;19;20029;-82
2022/11/23 10:49:18;;;;;;;6.93;2.58;;;12.10;83.00;;;;;;7377931;19;20018;-81
2022/11/23 10:51:56;;;;;;;6.82;2.20;;;12.20;83.50;;;;;;7378349;19;20018;-80
2022/11/23 10:54:29;;;;;;;3.75;2.28;;;12.20;83.10;;;;;;7377726;19;20022;-81
2022/11/23 10:56:59;;;;;;;3.42;1.63;;;12.20;83.00;;;;;;7379564;19;20015;-80
2022/11/23 10:59:30;;;;;;;2.90;1.90;;;12.20;82.90;;;;;;7378062;19;20014;-80
2022/11/23 11:02:16;;;;;;;;;;;12.30;83.10;;;;;;7380497;19;20019;-80
2022/11/23 11:04:49;;;;;;;5.75;1.63;;;12.40;83.30;;;;;;7383004;19;20011;-79
2022/11/23 11:07:27;;;;;;;6.68;1.98;;;12.40;83.10;;;;;;7397762;19;20082;-80
2022/11/23 11:10:02;;;;;;;5.10;2.42;;;12.40;83.10;;;;;;7378157;19;20018;-80
2022/11/23 11:12:34;;;;;;;5.50;2.15;;;12.50;83.00;;;;;;7380412;19;20006;-81
2022/11/23 11:15:16;;;;;;;3.22;2.40;;;12.50;83.00;;;;;;7382902;19;20172;-80
2022/11/23 11:17:44;;;;;;;4.63;2.25;;;12.60;83.10;;;;;;7384368;19;20089;-80
2022/11/23 11:20:46;;;;;;;2.20;1.80;;;12.60;83.20;;;;;;7385049;19;20093;-80
2022/11/23 11:23:19;;;;;;;6.20;2.22;;;12.60;83.30;;;;;;7382027;19;20568;-80
2022/11/23 11:25:51;;;;;;;2.15;1.75;;;12.70;83.60;;;;;;7380652;19;20453;-79
2022/11/23 11:28:26;;;;;;;5.20;2.00;;;12.70;83.60;;;;;;7405451;19;20460;-81
2022/11/23 11:31:05;;;;;;;4.63;2.63;;;12.70;83.80;;;;;;7379635;19;20011;-81
2022/11/23 11:33:42;;;;;;;4.93;2.58;;;12.80;84.00;;;;;;7381082;19;20010;-81
2022/11/23 11:36:18;;;;;;;6.88;2.30;;;12.80;84.10;;;;;;7379644;19;20078;-81
2022/11/23 11:38:50;;;;;;;6.25;2.72;;;12.80;84.40;;;;;;7380176;19;20024;-81
2022/11/23 11:41:24;;;;;;;3.63;2.30;;;12.80;84.50;;;;;;7378462;19;20085;-81
2022/11/23 11:43:59;;;;;;;5.93;2.35;;;12.80;84.70;;;;;;7380809;19;20021;-80
2022/11/23 11:46:34;;;;;;;3.72;2.13;;;13.00;84.90;;;;;;7403082;19;20086;-81
2022/11/23 11:49:09;;;;;;;4.88;1.73;;;13.00;84.90;;;;;;7381369;19;20047;-81
2022/11/23 11:51:44;;;;;;;2.53;1.48;;;13.00;84.90;;;;;;7379976;19;20098;-80
2022/11/23 11:54:23;;;;;;;2.75;1.70;;;13.10;85.20;;;;;;7378315;19;20022;-81
2022/11/23 11:56:54;;;;;;;2.45;1.30;;;13.10;85.40;;;;;;7377544;19;20430;-81
2022/11/23 11:59:29;;;;;;;5.20;1.60;;;13.20;86.10;;;;;;7378236;19;20021;-82
2022/11/23 12:02:05;;;;;;;8.20;1.77;;;13.20;86.10;;;;;;7377971;19;20107;-80
2022/11/23 12:04:43;;;;;;;3.40;1.45;;;13.30;85.80;;;;;;7396804;19;20021;-81
2022/11/23 12:07:19;;;;;;;4.35;1.25;;;13.20;85.90;;;;;;7373610;19;20310;-81
2022/11/23 12:09:54;;;;;;;9.57;1.23;;;13.50;85.60;;;;;;7374623;19;20094;-81
2022/11/23 12:12:24;;;;;;;7.88;1.55;;;13.50;85.10;;;;;;7376588;19;20391;-80
2022/11/23 12:14:53;;;;;;;2.83;1.33;;;13.60;85.20;;;;;;7375119;19;20011;-82
2022/11/23 12:17:40;;;;;;;6.78;1.30;;;13.70;85.10;;;;;;7374937;19;20014;-81
2022/11/23 12:20:21;;;;;;;2.88;1.48;;;13.60;85.20;;;;;;7373539;19;20010;-80
2022/11/23 12:23:05;;;;;;;4.57;1.50;;;13.80;85.20;;;;;;7376400;19;20070;-82
2022/11/23 12:25:37;;;;;;;2.90;1.52;;;13.80;84.80;;;;;;7402237;19;20303;-80
2022/11/23 12:28:32;;;;;;;6.70;1.25;;;13.90;84.60;;;;;;7385914;19;20073;-81
2022/11/23 12:31:10;;;;;;;3.28;1.27;;;13.90;85.10;;;;;;7391845;19;20043;-80
2022/11/23 12:34:20;;;;;;;8.95;1.90;;;14.00;84.10;;;;;;7389970;19;20015;-81
2022/11/23 12:37:19;;;;;;;4.70;1.45;;;14.00;84.10;;;;;;7379110;19;20666;-81
2022/11/23 12:40:15;;;;;;;5.78;1.50;;;14.10;84.10;;;;;;7379520;19;20082;-81
2022/11/23 12:42:48;;;;;;;4.95;1.40;;;14.10;83.80;;;;;;7380038;19;20011;-81
2022/11/23 12:45:29;;;;;;;4.28;1.25;;;14.20;83.50;;;;;;7376212;19;20025;-81
2022/11/23 12:48:05;;;;;;;6.85;1.60;;;14.10;83.20;;;;;;7375879;19;20074;-81
2022/11/23 12:50:41;;;;;;;7.40;1.60;;;14.20;83.10;;;;;;7375637;19;20457;-81
2022/11/23 12:53:31;;;;;;;10.60;1.80;;;14.40;82.60;;;;;;7375969;19;20038;-81
2022/11/23 12:56:11;;;;;;;10.40;1.63;;;14.40;80.50;;;;;;7375320;19;20039;-80
2022/11/23 12:58:41;;;;;;;13.65;2.20;;;14.40;80.60;;;;;;7395206;19;20101;-81
2022/11/23 13:01:17;;;;;;;15.95;2.13;;;14.40;80.00;;;;;;7375968;19;20018;-81
2022/11/23 13:04:26;;;;;;;21.00;2.13;;;14.30;78.80;;;;;;7379014;19;20135;-80